sensor_id;sensor_type;location;lat;lon;timestamp;P1;durP1;ratioP1;P2;durP2;ratioP2
33138;SDS011;19501;50.948;5.316;2023-03-14T00:01:12;14.85;;;2.63;;
33138;SDS011;19501;50.948;5.316;2023-03-14T00:03:40;8.60;;;2.50;;
33138;SDS011;19501;50.948;5.316;2023-03-14T00:06:06;10.80;;;2.72;;
33138;SDS011;19501;50.948;5.316;2023-03-14T00:08:32;13.48;;;2.33;;
33138;SDS011;19501;50.948;5.316;2023-03-14T00:11:03;11.10;;;2.40;;
33138;SDS011;19501;50.948;5.316;2023-03-14T00:13:33;8.73;;;2.60;;
33138;SDS011;19501;50.948;5.316;2023-03-14T00:16:03;9.00;;;2.85;;
33138;SDS011;19501;50.948;5.316;2023-03-14T00:18:33;10.32;;;2.97;;
33138;SDS011;19501;50.948;5.316;2023-03-14T00:21:00;17.45;;;2.80;;
33138;SDS011;19501;50.948;5.316;2023-03-14T00:23:27;9.38;;;2.50;;
33138;SDS011;19501;50.948;5.316;2023-03-14T00:25:57;12.93;;;2.53;;
33138;SDS011;19501;50.948;5.316;2023-03-14T00:28:30;12.75;;;2.35;;
33138;SDS011;19501;50.948;5.316;2023-03-14T00:30:56;8.55;;;2.40;;
33138;SDS011;19501;50.948;5.316;2023-03-14T00:33:22;9.77;;;2.10;;
33138;SDS011;19501;50.948;5.316;2023-03-14T00:35:54;9.80;;;2.22;;
33138;SDS011;19501;50.948;5.316;2023-03-14T00:38:25;7.65;;;2.10;;
33138;SDS011;19501;50.948;5.316;2023-03-14T00:40:51;6.80;;;1.95;;
33138;SDS011;19501;50.948;5.316;2023-03-14T00:43:17;12.68;;;2.22;;
33138;SDS011;19501;50.948;5.316;2023-03-14T00:45:46;7.90;;;1.98;;
33138;SDS011;19501;50.948;5.316;2023-03-14T00:48:12;11.48;;;2.60;;
33138;SDS011;19501;50.948;5.316;2023-03-14T00:50:38;10.93;;;2.60;;
33138;SDS011;19501;50.948;5.316;2023-03-14T00:53:04;6.57;;;2.05;;
33138;SDS011;19501;50.948;5.316;2023-03-14T00:55:30;10.98;;;2.30;;
33138;SDS011;19501;50.948;5.316;2023-03-14T00:57:55;10.05;;;2.35;;
33138;SDS011;19501;50.948;5.316;2023-03-14T01:00:21;14.88;;;3.17;;
33138;SDS011;19501;50.948;5.316;2023-03-14T01:02:47;13.68;;;2.92;;
33138;SDS011;19501;50.948;5.316;2023-03-14T01:05:13;18.63;;;3.05;;
33138;SDS011;19501;50.948;5.316;2023-03-14T01:07:38;10.52;;;2.40;;
33138;SDS011;19501;50.948;5.316;2023-03-14T01:10:04;12.57;;;2.42;;
33138;SDS011;19501;50.948;5.316;2023-03-14T01:12:31;14.02;;;2.47;;
33138;SDS011;19501;50.948;5.316;2023-03-14T01:14:57;14.73;;;2.80;;
33138;SDS011;19501;50.948;5.316;2023-03-14T01:17:23;15.60;;;2.65;;
33138;SDS011;19501;50.948;5.316;2023-03-14T01:19:48;18.50;;;2.95;;
33138;SDS011;19501;50.948;5.316;2023-03-14T01:22:14;11.65;;;2.40;;
33138;SDS011;19501;50.948;5.316;2023-03-14T01:24:40;14.70;;;2.50;;
33138;SDS011;19501;50.948;5.316;2023-03-14T01:27:05;10.23;;;2.28;;
33138;SDS011;19501;50.948;5.316;2023-03-14T01:29:31;7.65;;;2.00;;
33138;SDS011;19501;50.948;5.316;2023-03-14T01:31:57;12.63;;;2.65;;
33138;SDS011;19501;50.948;5.316;2023-03-14T01:34:22;13.75;;;2.90;;
33138;SDS011;19501;50.948;5.316;2023-03-14T01:36:48;12.98;;;2.65;;
33138;SDS011;19501;50.948;5.316;2023-03-14T01:39:14;10.88;;;2.13;;
33138;SDS011;19501;50.948;5.316;2023-03-14T01:41:39;14.10;;;2.78;;
33138;SDS011;19501;50.948;5.316;2023-03-14T01:44:08;12.65;;;2.63;;
33138;SDS011;19501;50.948;5.316;2023-03-14T01:52:16;16.10;;;3.00;;
33138;SDS011;19501;50.948;5.316;2023-03-14T01:57:23;14.70;;;2.95;;
33138;SDS011;19501;50.948;5.316;2023-03-14T01:59:55;11.27;;;2.78;;
33138;SDS011;19501;50.948;5.316;2023-03-14T02:02:28;10.45;;;2.70;;
33138;SDS011;19501;50.948;5.316;2023-03-14T02:04:55;25.77;;;4.50;;
33138;SDS011;19501;50.948;5.316;2023-03-14T02:07:23;17.42;;;3.83;;
33138;SDS011;19501;50.948;5.316;2023-03-14T02:10:07;20.85;;;3.30;;
33138;SDS011;19501;50.948;5.316;2023-03-14T02:12:34;13.00;;;2.90;;
33138;SDS011;19501;50.948;5.316;2023-03-14T02:15:00;11.60;;;2.42;;
33138;SDS011;19501;50.948;5.316;2023-03-14T02:17:25;14.25;;;2.65;;
33138;SDS011;19501;50.948;5.316;2023-03-14T02:20:09;13.10;;;2.88;;
33138;SDS011;19501;50.948;5.316;2023-03-14T02:22:48;10.95;;;2.55;;
33138;SDS011;19501;50.948;5.316;2023-03-14T02:27:58;13.35;;;2.72;;
33138;SDS011;19501;50.948;5.316;2023-03-14T02:30:26;15.32;;;2.75;;
33138;SDS011;19501;50.948;5.316;2023-03-14T02:35:53;20.88;;;3.42;;
33138;SDS011;19501;50.948;5.316;2023-03-14T02:41:13;25.65;;;3.92;;
33138;SDS011;19501;50.948;5.316;2023-03-14T02:43:40;19.23;;;3.17;;
33138;SDS011;19501;50.948;5.316;2023-03-14T02:46:05;14.70;;;2.75;;
33138;SDS011;19501;50.948;5.316;2023-03-14T02:48:44;17.10;;;3.13;;
33138;SDS011;19501;50.948;5.316;2023-03-14T02:51:14;13.45;;;2.17;;
33138;SDS011;19501;50.948;5.316;2023-03-14T02:53:40;15.75;;;3.45;;
33138;SDS011;19501;50.948;5.316;2023-03-14T02:56:07;16.42;;;3.38;;
33138;SDS011;19501;50.948;5.316;2023-03-14T02:58:34;14.90;;;3.55;;
33138;SDS011;19501;50.948;5.316;2023-03-14T03:01:00;15.27;;;2.55;;
33138;SDS011;19501;50.948;5.316;2023-03-14T03:03:26;12.73;;;2.67;;
33138;SDS011;19501;50.948;5.316;2023-03-14T03:05:52;16.50;;;2.55;;
33138;SDS011;19501;50.948;5.316;2023-03-14T03:08:19;12.00;;;2.50;;
33138;SDS011;19501;50.948;5.316;2023-03-14T03:10:46;12.80;;;2.10;;
33138;SDS011;19501;50.948;5.316;2023-03-14T03:13:12;10.95;;;2.08;;
33138;SDS011;19501;50.948;5.316;2023-03-14T03:15:38;5.32;;;2.15;;
33138;SDS011;19501;50.948;5.316;2023-03-14T03:18:04;4.43;;;1.60;;
33138;SDS011;19501;50.948;5.316;2023-03-14T03:20:30;5.32;;;1.98;;
33138;SDS011;19501;50.948;5.316;2023-03-14T03:22:56;7.82;;;1.83;;
33138;SDS011;19501;50.948;5.316;2023-03-14T03:25:21;7.68;;;1.88;;
33138;SDS011;19501;50.948;5.316;2023-03-14T03:27:47;9.60;;;1.88;;
33138;SDS011;19501;50.948;5.316;2023-03-14T03:30:13;13.98;;;2.08;;
33138;SDS011;19501;50.948;5.316;2023-03-14T03:32:41;12.35;;;2.78;;
33138;SDS011;19501;50.948;5.316;2023-03-14T03:35:09;10.60;;;2.50;;
33138;SDS011;19501;50.948;5.316;2023-03-14T03:37:35;13.52;;;2.88;;
33138;SDS011;19501;50.948;5.316;2023-03-14T03:40:01;11.88;;;2.20;;
33138;SDS011;19501;50.948;5.316;2023-03-14T03:42:30;16.52;;;2.95;;
33138;SDS011;19501;50.948;5.316;2023-03-14T03:44:57;11.82;;;2.80;;
33138;SDS011;19501;50.948;5.316;2023-03-14T03:47:22;20.20;;;3.35;;
33138;SDS011;19501;50.948;5.316;2023-03-14T03:49:48;15.48;;;3.80;;
33138;SDS011;19501;50.948;5.316;2023-03-14T03:52:14;17.23;;;3.70;;
33138;SDS011;19501;50.948;5.316;2023-03-14T03:54:40;19.80;;;3.63;;
33138;SDS011;19501;50.948;5.316;2023-03-14T03:57:05;20.33;;;4.20;;
33138;SDS011;19501;50.948;5.316;2023-03-14T03:59:31;26.17;;;4.32;;
33138;SDS011;19501;50.948;5.316;2023-03-14T04:01:57;17.40;;;4.03;;
33138;SDS011;19501;50.948;5.316;2023-03-14T04:04:22;18.25;;;4.30;;
33138;SDS011;19501;50.948;5.316;2023-03-14T04:06:48;25.88;;;4.32;;
33138;SDS011;19501;50.948;5.316;2023-03-14T04:09:13;22.75;;;4.03;;
33138;SDS011;19501;50.948;5.316;2023-03-14T04:11:39;23.85;;;4.15;;
33138;SDS011;19501;50.948;5.316;2023-03-14T04:14:06;20.15;;;4.28;;
33138;SDS011;19501;50.948;5.316;2023-03-14T04:16:32;21.60;;;4.25;;
33138;SDS011;19501;50.948;5.316;2023-03-14T04:18:57;18.63;;;3.53;;
33138;SDS011;19501;50.948;5.316;2023-03-14T04:21:23;13.85;;;3.20;;
33138;SDS011;19501;50.948;5.316;2023-03-14T04:23:49;21.63;;;4.43;;
33138;SDS011;19501;50.948;5.316;2023-03-14T04:26:14;18.63;;;3.20;;
33138;SDS011;19501;50.948;5.316;2023-03-14T04:28:40;14.02;;;2.97;;
33138;SDS011;19501;50.948;5.316;2023-03-14T04:31:09;14.50;;;3.50;;
33138;SDS011;19501;50.948;5.316;2023-03-14T04:33:48;13.88;;;3.40;;
33138;SDS011;19501;50.948;5.316;2023-03-14T04:36:13;13.68;;;3.00;;
33138;SDS011;19501;50.948;5.316;2023-03-14T04:38:40;11.27;;;2.47;;
33138;SDS011;19501;50.948;5.316;2023-03-14T04:41:08;11.55;;;2.63;;
33138;SDS011;19501;50.948;5.316;2023-03-14T04:43:33;14.45;;;2.78;;
33138;SDS011;19501;50.948;5.316;2023-03-14T04:46:02;11.23;;;2.67;;
33138;SDS011;19501;50.948;5.316;2023-03-14T04:48:28;12.48;;;2.17;;
33138;SDS011;19501;50.948;5.316;2023-03-14T04:50:54;9.68;;;2.15;;
33138;SDS011;19501;50.948;5.316;2023-03-14T04:53:20;9.30;;;2.20;;
33138;SDS011;19501;50.948;5.316;2023-03-14T04:55:49;8.43;;;1.88;;
33138;SDS011;19501;50.948;5.316;2023-03-14T04:58:17;9.63;;;2.10;;
33138;SDS011;19501;50.948;5.316;2023-03-14T05:00:43;13.10;;;2.30;;
33138;SDS011;19501;50.948;5.316;2023-03-14T05:03:08;7.57;;;1.77;;
33138;SDS011;19501;50.948;5.316;2023-03-14T05:05:34;8.18;;;1.80;;
33138;SDS011;19501;50.948;5.316;2023-03-14T05:07:59;6.40;;;1.60;;
33138;SDS011;19501;50.948;5.316;2023-03-14T05:10:25;4.28;;;1.95;;
33138;SDS011;19501;50.948;5.316;2023-03-14T05:12:53;8.25;;;1.80;;
33138;SDS011;19501;50.948;5.316;2023-03-14T05:15:19;5.00;;;1.80;;
33138;SDS011;19501;50.948;5.316;2023-03-14T05:17:44;4.78;;;1.63;;
33138;SDS011;19501;50.948;5.316;2023-03-14T05:20:11;8.32;;;1.90;;
33138;SDS011;19501;50.948;5.316;2023-03-14T05:22:40;8.00;;;1.85;;
33138;SDS011;19501;50.948;5.316;2023-03-14T05:25:06;4.47;;;1.35;;
33138;SDS011;19501;50.948;5.316;2023-03-14T05:27:32;8.40;;;1.80;;
33138;SDS011;19501;50.948;5.316;2023-03-14T05:29:58;3.60;;;1.88;;
33138;SDS011;19501;50.948;5.316;2023-03-14T05:32:24;4.28;;;1.55;;
33138;SDS011;19501;50.948;5.316;2023-03-14T05:34:49;2.67;;;1.40;;
33138;SDS011;19501;50.948;5.316;2023-03-14T05:37:15;5.15;;;1.80;;
33138;SDS011;19501;50.948;5.316;2023-03-14T05:39:41;7.30;;;1.60;;
33138;SDS011;19501;50.948;5.316;2023-03-14T05:42:06;5.05;;;1.63;;
33138;SDS011;19501;50.948;5.316;2023-03-14T05:44:32;4.13;;;1.63;;
33138;SDS011;19501;50.948;5.316;2023-03-14T05:47:00;8.85;;;1.90;;
33138;SDS011;19501;50.948;5.316;2023-03-14T05:49:25;4.43;;;2.00;;
33138;SDS011;19501;50.948;5.316;2023-03-14T05:51:51;9.02;;;2.47;;
33138;SDS011;19501;50.948;5.316;2023-03-14T05:54:17;8.93;;;2.63;;
33138;SDS011;19501;50.948;5.316;2023-03-14T05:56:42;11.07;;;2.60;;
33138;SDS011;19501;50.948;5.316;2023-03-14T05:59:08;9.95;;;3.33;;
33138;SDS011;19501;50.948;5.316;2023-03-14T06:01:34;8.85;;;3.10;;
33138;SDS011;19501;50.948;5.316;2023-03-14T06:04:00;5.75;;;2.63;;
33138;SDS011;19501;50.948;5.316;2023-03-14T06:06:26;11.77;;;3.17;;
33138;SDS011;19501;50.948;5.316;2023-03-14T06:08:51;12.95;;;3.67;;
33138;SDS011;19501;50.948;5.316;2023-03-14T06:11:20;11.10;;;3.28;;
33138;SDS011;19501;50.948;5.316;2023-03-14T06:13:45;11.70;;;3.95;;
33138;SDS011;19501;50.948;5.316;2023-03-14T06:16:11;12.77;;;3.90;;
33138;SDS011;19501;50.948;5.316;2023-03-14T06:18:38;10.63;;;3.92;;
33138;SDS011;19501;50.948;5.316;2023-03-14T06:21:03;10.73;;;3.25;;
33138;SDS011;19501;50.948;5.316;2023-03-14T06:23:29;12.95;;;3.25;;
33138;SDS011;19501;50.948;5.316;2023-03-14T06:25:56;11.82;;;3.60;;
33138;SDS011;19501;50.948;5.316;2023-03-14T06:28:23;12.05;;;3.85;;
33138;SDS011;19501;50.948;5.316;2023-03-14T06:30:48;12.63;;;3.45;;
33138;SDS011;19501;50.948;5.316;2023-03-14T06:33:14;9.55;;;3.38;;
33138;SDS011;19501;50.948;5.316;2023-03-14T06:35:40;11.02;;;3.35;;
33138;SDS011;19501;50.948;5.316;2023-03-14T06:38:05;11.15;;;3.35;;
33138;SDS011;19501;50.948;5.316;2023-03-14T06:40:31;13.73;;;3.58;;
33138;SDS011;19501;50.948;5.316;2023-03-14T06:42:57;6.57;;;2.90;;
33138;SDS011;19501;50.948;5.316;2023-03-14T06:45:22;10.15;;;3.60;;
33138;SDS011;19501;50.948;5.316;2023-03-14T06:47:48;10.85;;;3.42;;
33138;SDS011;19501;50.948;5.316;2023-03-14T06:50:17;9.13;;;3.30;;
33138;SDS011;19501;50.948;5.316;2023-03-14T06:52:43;16.67;;;3.60;;
33138;SDS011;19501;50.948;5.316;2023-03-14T06:55:13;7.18;;;2.70;;
33138;SDS011;19501;50.948;5.316;2023-03-14T06:57:39;7.05;;;2.88;;
33138;SDS011;19501;50.948;5.316;2023-03-14T07:00:05;9.70;;;3.17;;
33138;SDS011;19501;50.948;5.316;2023-03-14T07:02:31;8.95;;;3.42;;
33138;SDS011;19501;50.948;5.316;2023-03-14T07:04:57;11.27;;;3.35;;
33138;SDS011;19501;50.948;5.316;2023-03-14T07:07:23;11.48;;;3.35;;
33138;SDS011;19501;50.948;5.316;2023-03-14T07:09:48;11.07;;;3.35;;
33138;SDS011;19501;50.948;5.316;2023-03-14T07:12:14;11.43;;;3.70;;
33138;SDS011;19501;50.948;5.316;2023-03-14T07:14:39;10.35;;;3.10;;
33138;SDS011;19501;50.948;5.316;2023-03-14T07:17:05;12.77;;;3.45;;
33138;SDS011;19501;50.948;5.316;2023-03-14T07:19:31;12.93;;;3.90;;
33138;SDS011;19501;50.948;5.316;2023-03-14T07:21:56;13.77;;;3.53;;
33138;SDS011;19501;50.948;5.316;2023-03-14T07:24:25;11.85;;;3.40;;
33138;SDS011;19501;50.948;5.316;2023-03-14T07:26:50;11.98;;;3.42;;
33138;SDS011;19501;50.948;5.316;2023-03-14T07:29:16;13.32;;;3.88;;
33138;SDS011;19501;50.948;5.316;2023-03-14T07:31:42;16.83;;;3.92;;
33138;SDS011;19501;50.948;5.316;2023-03-14T07:34:07;14.88;;;3.63;;
33138;SDS011;19501;50.948;5.316;2023-03-14T07:36:33;12.45;;;3.55;;
33138;SDS011;19501;50.948;5.316;2023-03-14T07:39:01;11.77;;;3.95;;
33138;SDS011;19501;50.948;5.316;2023-03-14T07:41:26;15.18;;;4.00;;
33138;SDS011;19501;50.948;5.316;2023-03-14T07:43:52;13.13;;;3.92;;
33138;SDS011;19501;50.948;5.316;2023-03-14T07:46:18;14.23;;;3.35;;
33138;SDS011;19501;50.948;5.316;2023-03-14T07:48:43;14.82;;;4.05;;
33138;SDS011;19501;50.948;5.316;2023-03-14T07:51:09;14.18;;;4.13;;
33138;SDS011;19501;50.948;5.316;2023-03-14T07:53:34;11.30;;;3.53;;
33138;SDS011;19501;50.948;5.316;2023-03-14T07:56:00;6.22;;;2.78;;
33138;SDS011;19501;50.948;5.316;2023-03-14T07:58:26;7.75;;;2.40;;
33138;SDS011;19501;50.948;5.316;2023-03-14T08:00:51;5.88;;;2.17;;
33138;SDS011;19501;50.948;5.316;2023-03-14T08:03:19;9.40;;;2.67;;
33138;SDS011;19501;50.948;5.316;2023-03-14T08:05:48;11.57;;;3.70;;
33138;SDS011;19501;50.948;5.316;2023-03-14T08:08:15;7.65;;;2.85;;
33138;SDS011;19501;50.948;5.316;2023-03-14T08:10:41;8.32;;;3.05;;
33138;SDS011;19501;50.948;5.316;2023-03-14T08:13:08;10.60;;;3.40;;
33138;SDS011;19501;50.948;5.316;2023-03-14T08:15:34;10.38;;;3.92;;
33138;SDS011;19501;50.948;5.316;2023-03-14T08:18:00;8.60;;;3.60;;
33138;SDS011;19501;50.948;5.316;2023-03-14T08:20:27;10.50;;;3.55;;
33138;SDS011;19501;50.948;5.316;2023-03-14T08:22:57;9.30;;;4.10;;
33138;SDS011;19501;50.948;5.316;2023-03-14T08:25:24;13.32;;;3.10;;
33138;SDS011;19501;50.948;5.316;2023-03-14T08:27:50;9.95;;;3.55;;
33138;SDS011;19501;50.948;5.316;2023-03-14T08:30:17;12.20;;;3.90;;
33138;SDS011;19501;50.948;5.316;2023-03-14T08:32:44;16.02;;;4.00;;
33138;SDS011;19501;50.948;5.316;2023-03-14T08:35:10;9.93;;;3.63;;
33138;SDS011;19501;50.948;5.316;2023-03-14T08:37:36;14.32;;;4.38;;
33138;SDS011;19501;50.948;5.316;2023-03-14T08:40:03;16.95;;;5.32;;
33138;SDS011;19501;50.948;5.316;2023-03-14T08:42:32;14.88;;;5.60;;
33138;SDS011;19501;50.948;5.316;2023-03-14T08:44:58;18.40;;;6.30;;
33138;SDS011;19501;50.948;5.316;2023-03-14T08:47:24;13.20;;;5.38;;
33138;SDS011;19501;50.948;5.316;2023-03-14T08:49:50;20.02;;;5.50;;
33138;SDS011;19501;50.948;5.316;2023-03-14T08:52:15;12.88;;;4.28;;
33138;SDS011;19501;50.948;5.316;2023-03-14T08:54:43;15.65;;;4.60;;
33138;SDS011;19501;50.948;5.316;2023-03-14T08:57:09;17.60;;;5.15;;
33138;SDS011;19501;50.948;5.316;2023-03-14T08:59:34;17.83;;;5.53;;
33138;SDS011;19501;50.948;5.316;2023-03-14T09:02:00;17.35;;;4.88;;
33138;SDS011;19501;50.948;5.316;2023-03-14T09:04:28;14.85;;;4.90;;
33138;SDS011;19501;50.948;5.316;2023-03-14T09:06:54;18.42;;;4.88;;
33138;SDS011;19501;50.948;5.316;2023-03-14T09:09:20;11.90;;;5.55;;
33138;SDS011;19501;50.948;5.316;2023-03-14T09:11:47;12.32;;;4.47;;
33138;SDS011;19501;50.948;5.316;2023-03-14T09:14:12;15.02;;;4.78;;
33138;SDS011;19501;50.948;5.316;2023-03-14T09:16:41;13.35;;;4.88;;
33138;SDS011;19501;50.948;5.316;2023-03-14T09:19:06;17.33;;;6.05;;
33138;SDS011;19501;50.948;5.316;2023-03-14T09:21:32;16.75;;;5.63;;
33138;SDS011;19501;50.948;5.316;2023-03-14T09:23:57;15.75;;;5.93;;
33138;SDS011;19501;50.948;5.316;2023-03-14T09:26:23;14.75;;;5.82;;
33138;SDS011;19501;50.948;5.316;2023-03-14T09:28:49;13.55;;;5.40;;
33138;SDS011;19501;50.948;5.316;2023-03-14T09:31:14;16.08;;;6.10;;
33138;SDS011;19501;50.948;5.316;2023-03-14T09:33:40;15.45;;;5.72;;
33138;SDS011;19501;50.948;5.316;2023-03-14T09:36:06;16.02;;;5.60;;
33138;SDS011;19501;50.948;5.316;2023-03-14T09:38:32;10.45;;;4.38;;
33138;SDS011;19501;50.948;5.316;2023-03-14T09:41:01;14.32;;;4.97;;
33138;SDS011;19501;50.948;5.316;2023-03-14T09:43:35;14.75;;;5.72;;
33138;SDS011;19501;50.948;5.316;2023-03-14T09:46:01;15.52;;;5.57;;
33138;SDS011;19501;50.948;5.316;2023-03-14T09:48:29;16.63;;;5.70;;
33138;SDS011;19501;50.948;5.316;2023-03-14T09:50:58;12.77;;;4.65;;
33138;SDS011;19501;50.948;5.316;2023-03-14T09:53:31;11.73;;;4.70;;
33138;SDS011;19501;50.948;5.316;2023-03-14T09:56:07;13.65;;;5.13;;
33138;SDS011;19501;50.948;5.316;2023-03-14T09:58:48;14.15;;;4.65;;
33138;SDS011;19501;50.948;5.316;2023-03-14T10:01:24;17.83;;;5.03;;
33138;SDS011;19501;50.948;5.316;2023-03-14T10:03:55;8.18;;;3.22;;
33138;SDS011;19501;50.948;5.316;2023-03-14T10:06:24;8.23;;;3.35;;
33138;SDS011;19501;50.948;5.316;2023-03-14T10:08:52;11.10;;;3.17;;
33138;SDS011;19501;50.948;5.316;2023-03-14T10:11:19;8.40;;;2.75;;
33138;SDS011;19501;50.948;5.316;2023-03-14T10:16:35;7.47;;;2.90;;
33138;SDS011;19501;50.948;5.316;2023-03-14T10:19:15;7.50;;;3.30;;
33138;SDS011;19501;50.948;5.316;2023-03-14T10:21:50;13.10;;;3.25;;
33138;SDS011;19501;50.948;5.316;2023-03-14T10:24:22;8.70;;;2.83;;
33138;SDS011;19501;50.948;5.316;2023-03-14T10:27:02;5.85;;;2.78;;
33138;SDS011;19501;50.948;5.316;2023-03-14T10:32:52;10.77;;;3.67;;
33138;SDS011;19501;50.948;5.316;2023-03-14T10:35:20;9.77;;;3.45;;
33138;SDS011;19501;50.948;5.316;2023-03-14T10:40:24;8.23;;;3.00;;
33138;SDS011;19501;50.948;5.316;2023-03-14T10:46:15;13.73;;;3.58;;
33138;SDS011;19501;50.948;5.316;2023-03-14T10:48:43;12.95;;;3.40;;
33138;SDS011;19501;50.948;5.316;2023-03-14T10:53:46;6.15;;;2.80;;
33138;SDS011;19501;50.948;5.316;2023-03-14T10:56:24;8.10;;;2.95;;
33138;SDS011;19501;50.948;5.316;2023-03-14T10:58:52;5.88;;;2.55;;
33138;SDS011;19501;50.948;5.316;2023-03-14T11:07:16;7.43;;;2.65;;
33138;SDS011;19501;50.948;5.316;2023-03-14T11:12:41;4.53;;;2.42;;
33138;SDS011;19501;50.948;5.316;2023-03-14T11:23:35;3.97;;;2.53;;
33138;SDS011;19501;50.948;5.316;2023-03-14T11:28:38;8.30;;;3.13;;
33138;SDS011;19501;50.948;5.316;2023-03-14T11:31:31;8.00;;;2.97;;
33138;SDS011;19501;50.948;5.316;2023-03-14T11:39:47;8.13;;;3.50;;
33138;SDS011;19501;50.948;5.316;2023-03-14T11:42:37;12.60;;;3.58;;
33138;SDS011;19501;50.948;5.316;2023-03-14T11:45:10;8.23;;;3.60;;
33138;SDS011;19501;50.948;5.316;2023-03-14T11:47:48;10.55;;;3.78;;
33138;SDS011;19501;50.948;5.316;2023-03-14T11:50:24;11.23;;;3.67;;
33138;SDS011;19501;50.948;5.316;2023-03-14T11:52:57;9.77;;;3.67;;
33138;SDS011;19501;50.948;5.316;2023-03-14T11:55:47;11.00;;;3.78;;
33138;SDS011;19501;50.948;5.316;2023-03-14T12:00:45;8.95;;;3.90;;
33138;SDS011;19501;50.948;5.316;2023-03-14T12:08:56;11.02;;;3.67;;
33138;SDS011;19501;50.948;5.316;2023-03-14T12:14:03;9.02;;;3.10;;
33138;SDS011;19501;50.948;5.316;2023-03-14T12:16:43;11.25;;;3.53;;
33138;SDS011;19501;50.948;5.316;2023-03-14T12:21:54;10.73;;;3.85;;
33138;SDS011;19501;50.948;5.316;2023-03-14T12:24:35;14.68;;;4.78;;
33138;SDS011;19501;50.948;5.316;2023-03-14T12:27:03;15.07;;;3.92;;
33138;SDS011;19501;50.948;5.316;2023-03-14T12:29:31;16.55;;;3.47;;
33138;SDS011;19501;50.948;5.316;2023-03-14T12:34:32;18.50;;;4.00;;
33138;SDS011;19501;50.948;5.316;2023-03-14T12:43:01;10.00;;;2.20;;
33138;SDS011;19501;50.948;5.316;2023-03-14T12:45:31;9.52;;;2.30;;
33138;SDS011;19501;50.948;5.316;2023-03-14T12:48:09;10.55;;;2.75;;
33138;SDS011;19501;50.948;5.316;2023-03-14T12:50:45;16.20;;;2.72;;
33138;SDS011;19501;50.948;5.316;2023-03-14T12:58:31;13.98;;;2.85;;
33138;SDS011;19501;50.948;5.316;2023-03-14T13:01:04;17.17;;;3.67;;
33138;SDS011;19501;50.948;5.316;2023-03-14T13:06:12;26.77;;;4.60;;
33138;SDS011;19501;50.948;5.316;2023-03-14T13:08:58;23.23;;;4.28;;
33138;SDS011;19501;50.948;5.316;2023-03-14T13:12:13;20.73;;;3.58;;
33138;SDS011;19501;50.948;5.316;2023-03-14T13:14:44;20.02;;;3.85;;
33138;SDS011;19501;50.948;5.316;2023-03-14T13:17:15;21.38;;;4.03;;
33138;SDS011;19501;50.948;5.316;2023-03-14T13:19:46;25.65;;;4.72;;
33138;SDS011;19501;50.948;5.316;2023-03-14T13:22:28;23.20;;;5.65;;
33138;SDS011;19501;50.948;5.316;2023-03-14T13:24:59;27.70;;;5.53;;
33138;SDS011;19501;50.948;5.316;2023-03-14T13:27:29;21.38;;;5.13;;
33138;SDS011;19501;50.948;5.316;2023-03-14T13:29:56;20.33;;;5.15;;
33138;SDS011;19501;50.948;5.316;2023-03-14T13:32:25;23.27;;;4.78;;
33138;SDS011;19501;50.948;5.316;2023-03-14T13:34:56;27.23;;;5.28;;
33138;SDS011;19501;50.948;5.316;2023-03-14T13:37:23;20.85;;;4.57;;
33138;SDS011;19501;50.948;5.316;2023-03-14T13:39:51;21.02;;;5.43;;
33138;SDS011;19501;50.948;5.316;2023-03-14T13:42:20;25.88;;;5.88;;
33138;SDS011;19501;50.948;5.316;2023-03-14T13:44:46;19.52;;;4.72;;
33138;SDS011;19501;50.948;5.316;2023-03-14T13:47:14;26.38;;;5.57;;
33138;SDS011;19501;50.948;5.316;2023-03-14T13:49:42;28.88;;;4.63;;
33138;SDS011;19501;50.948;5.316;2023-03-14T13:52:21;29.27;;;4.30;;
33138;SDS011;19501;50.948;5.316;2023-03-14T13:54:54;20.60;;;3.78;;
33138;SDS011;19501;50.948;5.316;2023-03-14T13:57:25;23.65;;;4.35;;
33138;SDS011;19501;50.948;5.316;2023-03-14T14:00:00;21.42;;;4.93;;
33138;SDS011;19501;50.948;5.316;2023-03-14T14:02:31;23.10;;;4.93;;
33138;SDS011;19501;50.948;5.316;2023-03-14T14:04:59;19.13;;;4.25;;
33138;SDS011;19501;50.948;5.316;2023-03-14T14:07:28;22.10;;;4.38;;
33138;SDS011;19501;50.948;5.316;2023-03-14T14:09:54;28.55;;;4.20;;
33138;SDS011;19501;50.948;5.316;2023-03-14T14:12:31;24.40;;;4.50;;
33138;SDS011;19501;50.948;5.316;2023-03-14T14:15:07;20.05;;;4.18;;
33138;SDS011;19501;50.948;5.316;2023-03-14T14:20:30;12.05;;;3.47;;
33138;SDS011;19501;50.948;5.316;2023-03-14T14:23:03;18.58;;;3.40;;
33138;SDS011;19501;50.948;5.316;2023-03-14T14:25:31;21.00;;;4.55;;
33138;SDS011;19501;50.948;5.316;2023-03-14T14:27:57;12.55;;;3.15;;
33138;SDS011;19501;50.948;5.316;2023-03-14T14:30:25;13.43;;;3.42;;
33138;SDS011;19501;50.948;5.316;2023-03-14T14:33:10;14.73;;;3.42;;
33138;SDS011;19501;50.948;5.316;2023-03-14T14:35:41;15.82;;;3.65;;
33138;SDS011;19501;50.948;5.316;2023-03-14T14:38:16;16.50;;;3.47;;
33138;SDS011;19501;50.948;5.316;2023-03-14T14:40:46;12.80;;;3.63;;
33138;SDS011;19501;50.948;5.316;2023-03-14T14:43:20;12.48;;;3.47;;
33138;SDS011;19501;50.948;5.316;2023-03-14T14:45:49;11.15;;;3.22;;
33138;SDS011;19501;50.948;5.316;2023-03-14T14:48:18;18.95;;;3.42;;
33138;SDS011;19501;50.948;5.316;2023-03-14T14:50:50;13.80;;;3.23;;
33138;SDS011;19501;50.948;5.316;2023-03-14T14:53:31;10.90;;;3.60;;
33138;SDS011;19501;50.948;5.316;2023-03-14T14:56:03;17.50;;;3.33;;
33138;SDS011;19501;50.948;5.316;2023-03-14T14:58:36;21.50;;;3.60;;
33138;SDS011;19501;50.948;5.316;2023-03-14T15:01:14;15.82;;;3.80;;
33138;SDS011;19501;50.948;5.316;2023-03-14T15:03:42;17.45;;;4.35;;
33138;SDS011;19501;50.948;5.316;2023-03-14T15:06:13;14.25;;;4.05;;
33138;SDS011;19501;50.948;5.316;2023-03-14T15:08:40;16.00;;;4.28;;
33138;SDS011;19501;50.948;5.316;2023-03-14T15:11:09;16.23;;;3.90;;
33138;SDS011;19501;50.948;5.316;2023-03-14T15:13:42;16.83;;;3.85;;
33138;SDS011;19501;50.948;5.316;2023-03-14T15:16:11;17.80;;;4.25;;
33138;SDS011;19501;50.948;5.316;2023-03-14T15:18:39;16.13;;;3.85;;
33138;SDS011;19501;50.948;5.316;2023-03-14T15:21:05;13.48;;;3.58;;
33138;SDS011;19501;50.948;5.316;2023-03-14T15:23:30;19.48;;;4.07;;
33138;SDS011;19501;50.948;5.316;2023-03-14T15:25:56;22.75;;;6.13;;
33138;SDS011;19501;50.948;5.316;2023-03-14T15:28:23;20.55;;;7.43;;
33138;SDS011;19501;50.948;5.316;2023-03-14T15:30:51;18.85;;;6.03;;
33138;SDS011;19501;50.948;5.316;2023-03-14T15:33:18;12.70;;;2.75;;
33138;SDS011;19501;50.948;5.316;2023-03-14T15:35:45;17.92;;;4.13;;
33138;SDS011;19501;50.948;5.316;2023-03-14T15:38:13;11.30;;;3.60;;
33138;SDS011;19501;50.948;5.316;2023-03-14T15:40:41;20.75;;;6.00;;
33138;SDS011;19501;50.948;5.316;2023-03-14T15:43:07;13.88;;;3.80;;
33138;SDS011;19501;50.948;5.316;2023-03-14T15:45:34;18.90;;;3.05;;
33138;SDS011;19501;50.948;5.316;2023-03-14T15:48:03;15.85;;;2.75;;
33138;SDS011;19501;50.948;5.316;2023-03-14T15:50:29;10.27;;;2.35;;
33138;SDS011;19501;50.948;5.316;2023-03-14T15:52:55;15.63;;;2.95;;
33138;SDS011;19501;50.948;5.316;2023-03-14T15:55:21;15.27;;;2.40;;
33138;SDS011;19501;50.948;5.316;2023-03-14T15:57:47;14.57;;;2.60;;
33138;SDS011;19501;50.948;5.316;2023-03-14T16:00:13;10.02;;;2.40;;
33138;SDS011;19501;50.948;5.316;2023-03-14T16:02:43;11.45;;;2.63;;
33138;SDS011;19501;50.948;5.316;2023-03-14T16:05:10;17.65;;;2.90;;
33138;SDS011;19501;50.948;5.316;2023-03-14T16:07:41;14.23;;;2.72;;
33138;SDS011;19501;50.948;5.316;2023-03-14T16:10:07;11.70;;;2.50;;
33138;SDS011;19501;50.948;5.316;2023-03-14T16:12:34;11.65;;;2.90;;
33138;SDS011;19501;50.948;5.316;2023-03-14T16:15:00;16.77;;;2.55;;